sensor_id;sensor_type;location;lat;lon;timestamp;pressure;altitude;pressure_sealevel;temperature;humidity
81274;BME280;70753;47.908;11.274;2023-12-29T00:00:53;95002.84;;;9.65;50.81
81274;BME280;70753;47.908;11.274;2023-12-29T00:03:19;94999.13;;;9.66;51.03
81274;BME280;70753;47.908;11.274;2023-12-29T00:05:44;94994.91;;;9.50;52.17
81274;BME280;70753;47.908;11.274;2023-12-29T00:08:09;94991.69;;;9.58;51.85
81274;BME280;70753;47.908;11.274;2023-12-29T00:10:35;94992.84;;;9.12;53.31
81274;BME280;70753;47.908;11.274;2023-12-29T00:13:00;94994.97;;;9.20;53.30
81274;BME280;70753;47.908;11.274;2023-12-29T00:15:27;94984.81;;;9.37;53.24
81274;BME280;70753;47.908;11.274;2023-12-29T00:17:52;94989.13;;;9.03;57.20
81274;BME280;70753;47.908;11.274;2023-12-29T00:20:18;94981.63;;;9.35;56.78
81274;BME280;70753;47.908;11.274;2023-12-29T00:22:44;94974.53;;;8.95;56.41
81274;BME280;70753;47.908;11.274;2023-12-29T00:25:09;94970.53;;;8.73;58.21
81274;BME280;70753;47.908;11.274;2023-12-29T00:27:35;94973.75;;;8.70;57.95
81274;BME280;70753;47.908;11.274;2023-12-29T00:30:01;94967.88;;;8.93;56.37
81274;BME280;70753;47.908;11.274;2023-12-29T00:32:28;94963.88;;;9.00;58.01
81274;BME280;70753;47.908;11.274;2023-12-29T00:34:53;94963.06;;;9.10;57.52
81274;BME280;70753;47.908;11.274;2023-12-29T00:37:19;94972.91;;;8.89;58.18
81274;BME280;70753;47.908;11.274;2023-12-29T00:39:44;94966.28;;;8.87;59.51
81274;BME280;70753;47.908;11.274;2023-12-29T00:42:09;94963.34;;;8.93;60.07
81274;BME280;70753;47.908;11.274;2023-12-29T00:44:35;94965.69;;;9.25;59.33
81274;BME280;70753;47.908;11.274;2023-12-29T00:47:00;94959.81;;;9.38;58.57
81274;BME280;70753;47.908;11.274;2023-12-29T00:49:27;94961.97;;;9.36;59.04
81274;BME280;70753;47.908;11.274;2023-12-29T00:51:53;94951.59;;;9.24;59.33
81274;BME280;70753;47.908;11.274;2023-12-29T00:54:18;94959.31;;;9.31;59.04
81274;BME280;70753;47.908;11.274;2023-12-29T00:56:48;94953.41;;;9.44;58.32
81274;BME280;70753;47.908;11.274;2023-12-29T00:59:13;94951.31;;;9.36;58.43
81274;BME280;70753;47.908;11.274;2023-12-29T01:01:39;94949.72;;;9.35;58.23
81274;BME280;70753;47.908;11.274;2023-12-29T01:04:05;94942.28;;;9.27;57.29
81274;BME280;70753;47.908;11.274;2023-12-29T01:06:32;94939.38;;;9.18;56.39
81274;BME280;70753;47.908;11.274;2023-12-29T01:08:57;94941.78;;;9.10;57.20
81274;BME280;70753;47.908;11.274;2023-12-29T01:11:23;94936.16;;;9.21;57.09
81274;BME280;70753;47.908;11.274;2023-12-29T01:13:49;94927.38;;;9.31;55.50
81274;BME280;70753;47.908;11.274;2023-12-29T01:16:14;94924.97;;;9.35;55.03
81274;BME280;70753;47.908;11.274;2023-12-29T01:18:39;94922.81;;;9.42;54.13
81274;BME280;70753;47.908;11.274;2023-12-29T01:21:05;94927.34;;;9.41;53.46
81274;BME280;70753;47.908;11.274;2023-12-29T01:23:32;94920.44;;;9.30;53.14
81274;BME280;70753;47.908;11.274;2023-12-29T01:25:58;94918.56;;;9.41;52.96
81274;BME280;70753;47.908;11.274;2023-12-29T01:28:24;94915.09;;;9.45;51.98
81274;BME280;70753;47.908;11.274;2023-12-29T01:30:49;94917.50;;;9.42;51.64
81274;BME280;70753;47.908;11.274;2023-12-29T01:33:14;94922.53;;;9.48;51.44
81274;BME280;70753;47.908;11.274;2023-12-29T01:35:40;94921.44;;;9.59;50.91
81274;BME280;70753;47.908;11.274;2023-12-29T01:38:05;94911.81;;;9.63;49.97
81274;BME280;70753;47.908;11.274;2023-12-29T01:40:42;94905.47;;;9.54;50.15
81274;BME280;70753;47.908;11.274;2023-12-29T01:43:08;94899.06;;;9.60;50.10
81274;BME280;70753;47.908;11.274;2023-12-29T01:45:33;94893.72;;;9.70;49.01
81274;BME280;70753;47.908;11.274;2023-12-29T01:47:58;94896.81;;;9.82;48.91
81274;BME280;70753;47.908;11.274;2023-12-29T01:50:24;94895.50;;;9.85;48.04
81274;BME280;70753;47.908;11.274;2023-12-29T01:52:50;94893.94;;;9.74;47.83
81274;BME280;70753;47.908;11.274;2023-12-29T01:55:18;94886.19;;;9.82;47.36
81274;BME280;70753;47.908;11.274;2023-12-29T01:57:48;94883.53;;;9.77;47.04
81274;BME280;70753;47.908;11.274;2023-12-29T02:00:15;94894.75;;;9.74;47.19
81274;BME280;70753;47.908;11.274;2023-12-29T02:02:41;94897.31;;;9.89;46.82
81274;BME280;70753;47.908;11.274;2023-12-29T02:05:08;94902.09;;;9.92;46.85
81274;BME280;70753;47.908;11.274;2023-12-29T02:07:36;94898.81;;;10.16;46.45
81274;BME280;70753;47.908;11.274;2023-12-29T02:10:02;94897.16;;;10.20;46.87
81274;BME280;70753;47.908;11.274;2023-12-29T02:12:29;94899.50;;;9.82;50.91
81274;BME280;70753;47.908;11.274;2023-12-29T02:14:56;94899.16;;;9.35;53.26
81274;BME280;70753;47.908;11.274;2023-12-29T02:17:24;94902.00;;;9.54;53.62
81274;BME280;70753;47.908;11.274;2023-12-29T02:19:51;94902.81;;;9.54;53.54
81274;BME280;70753;47.908;11.274;2023-12-29T02:22:17;94910.56;;;9.41;53.67
81274;BME280;70753;47.908;11.274;2023-12-29T02:24:46;94903.91;;;9.43;53.61
81274;BME280;70753;47.908;11.274;2023-12-29T02:27:23;94908.16;;;9.49;53.07
81274;BME280;70753;47.908;11.274;2023-12-29T02:30:01;94896.56;;;9.25;53.85
81274;BME280;70753;47.908;11.274;2023-12-29T02:32:29;94881.00;;;8.48;56.13
81274;BME280;70753;47.908;11.274;2023-12-29T02:34:56;94880.44;;;8.01;57.81
81274;BME280;70753;47.908;11.274;2023-12-29T02:37:23;94886.03;;;8.44;56.45
81274;BME280;70753;47.908;11.274;2023-12-29T02:39:51;94884.44;;;8.74;55.53
81274;BME280;70753;47.908;11.274;2023-12-29T02:42:17;94903.56;;;8.86;54.88
81274;BME280;70753;47.908;11.274;2023-12-29T02:44:42;94898.72;;;8.98;53.79
81274;BME280;70753;47.908;11.274;2023-12-29T02:47:07;94897.16;;;8.92;53.53
81274;BME280;70753;47.908;11.274;2023-12-29T02:49:33;94891.59;;;8.88;53.92
81274;BME280;70753;47.908;11.274;2023-12-29T02:51:58;94893.16;;;8.89;53.32
81274;BME280;70753;47.908;11.274;2023-12-29T02:54:24;94890.25;;;8.91;53.17
81274;BME280;70753;47.908;11.274;2023-12-29T02:56:51;94879.59;;;9.01;51.51
81274;BME280;70753;47.908;11.274;2023-12-29T02:59:16;94883.88;;;8.77;52.10
81274;BME280;70753;47.908;11.274;2023-12-29T03:01:42;94871.16;;;8.69;51.36
81274;BME280;70753;47.908;11.274;2023-12-29T03:04:07;94874.91;;;8.47;51.51
81274;BME280;70753;47.908;11.274;2023-12-29T03:06:32;94880.19;;;8.63;51.29
81274;BME280;70753;47.908;11.274;2023-12-29T03:08:58;94870.63;;;8.72;50.45
81274;BME280;70753;47.908;11.274;2023-12-29T03:11:23;94864.75;;;8.75;50.27
81274;BME280;70753;47.908;11.274;2023-12-29T03:13:50;94863.19;;;8.64;50.45
81274;BME280;70753;47.908;11.274;2023-12-29T03:16:16;94851.25;;;8.36;49.08
81274;BME280;70753;47.908;11.274;2023-12-29T03:18:42;94847.81;;;8.40;50.45
81274;BME280;70753;47.908;11.274;2023-12-29T03:21:07;94854.72;;;8.52;49.96
81274;BME280;70753;47.908;11.274;2023-12-29T03:23:33;94853.66;;;8.47;48.00
81274;BME280;70753;47.908;11.274;2023-12-29T03:25:59;94852.31;;;8.60;48.53
81274;BME280;70753;47.908;11.274;2023-12-29T03:28:25;94848.84;;;8.65;47.66
81274;BME280;70753;47.908;11.274;2023-12-29T03:30:52;94857.06;;;8.73;48.23
81274;BME280;70753;47.908;11.274;2023-12-29T03:33:17;94853.88;;;8.71;47.41
81274;BME280;70753;47.908;11.274;2023-12-29T03:35:42;94848.31;;;8.63;48.78
81274;BME280;70753;47.908;11.274;2023-12-29T03:38:09;94850.97;;;8.58;49.13
81274;BME280;70753;47.908;11.274;2023-12-29T03:40:34;94856.78;;;8.75;47.35
81274;BME280;70753;47.908;11.274;2023-12-29T03:42:59;94850.44;;;8.76;47.70
81274;BME280;70753;47.908;11.274;2023-12-29T03:45:25;94852.53;;;8.89;47.43
81274;BME280;70753;47.908;11.274;2023-12-29T03:47:52;94846.16;;;8.75;48.06
81274;BME280;70753;47.908;11.274;2023-12-29T03:50:17;94841.41;;;8.72;49.12
81274;BME280;70753;47.908;11.274;2023-12-29T03:52:43;94844.06;;;8.72;49.72
81274;BME280;70753;47.908;11.274;2023-12-29T03:55:08;94834.19;;;8.72;50.41
81274;BME280;70753;47.908;11.274;2023-12-29T03:57:33;94839.78;;;8.76;48.32
81274;BME280;70753;47.908;11.274;2023-12-29T03:59:59;94840.28;;;8.88;47.23
81274;BME280;70753;47.908;11.274;2023-12-29T04:02:24;94837.91;;;8.81;47.33
81274;BME280;70753;47.908;11.274;2023-12-29T04:04:51;94845.63;;;8.73;46.94
81274;BME280;70753;47.908;11.274;2023-12-29T04:07:16;94833.41;;;8.82;45.69
81274;BME280;70753;47.908;11.274;2023-12-29T04:09:42;94834.94;;;8.98;45.85
81274;BME280;70753;47.908;11.274;2023-12-29T04:12:08;94837.63;;;8.88;49.41
81274;BME280;70753;47.908;11.274;2023-12-29T04:14:33;94833.91;;;8.79;50.63
81274;BME280;70753;47.908;11.274;2023-12-29T04:16:58;94836.06;;;8.87;50.10
81274;BME280;70753;47.908;11.274;2023-12-29T04:19:24;94837.41;;;8.64;50.62
81274;BME280;70753;47.908;11.274;2023-12-29T04:21:50;94827.59;;;8.44;51.27
81274;BME280;70753;47.908;11.274;2023-12-29T04:24:16;94833.44;;;8.72;50.24
81274;BME280;70753;47.908;11.274;2023-12-29T04:26:41;94825.66;;;8.90;49.98
81274;BME280;70753;47.908;11.274;2023-12-29T04:29:07;94829.88;;;8.96;49.21
81274;BME280;70753;47.908;11.274;2023-12-29T04:31:33;94832.78;;;9.05;49.16
81274;BME280;70753;47.908;11.274;2023-12-29T04:33:59;94820.59;;;8.94;49.69
81274;BME280;70753;47.908;11.274;2023-12-29T04:36:25;94825.41;;;8.82;49.99
81274;BME280;70753;47.908;11.274;2023-12-29T04:38:53;94819.53;;;8.85;50.33
81274;BME280;70753;47.908;11.274;2023-12-29T04:41:18;94823.25;;;8.94;49.72
81274;BME280;70753;47.908;11.274;2023-12-29T04:43:43;94822.19;;;8.90;50.35
81274;BME280;70753;47.908;11.274;2023-12-29T04:46:09;94822.44;;;8.98;49.29
81274;BME280;70753;47.908;11.274;2023-12-29T04:48:34;94826.47;;;8.81;48.56
81274;BME280;70753;47.908;11.274;2023-12-29T04:51:00;94824.38;;;8.78;45.88
81274;BME280;70753;47.908;11.274;2023-12-29T04:53:25;94820.38;;;8.80;47.56
81274;BME280;70753;47.908;11.274;2023-12-29T04:55:52;94833.91;;;8.79;46.36
81274;BME280;70753;47.908;11.274;2023-12-29T04:58:17;94831.03;;;8.55;48.93
81274;BME280;70753;47.908;11.274;2023-12-29T05:00:42;94827.53;;;8.85;46.48
81274;BME280;70753;47.908;11.274;2023-12-29T05:03:08;94832.56;;;8.91;46.30
81274;BME280;70753;47.908;11.274;2023-12-29T05:05:33;94830.69;;;8.97;45.93
81274;BME280;70753;47.908;11.274;2023-12-29T05:07:58;94833.63;;;8.95;44.08
81274;BME280;70753;47.908;11.274;2023-12-29T05:10:24;94845.38;;;8.69;46.38
81274;BME280;70753;47.908;11.274;2023-12-29T05:12:50;94837.69;;;8.58;46.57
81274;BME280;70753;47.908;11.274;2023-12-29T05:15:16;94835.59;;;8.49;47.89
81274;BME280;70753;47.908;11.274;2023-12-29T05:17:41;94840.28;;;8.83;46.21
81274;BME280;70753;47.908;11.274;2023-12-29T05:20:08;94840.78;;;9.00;45.80
81274;BME280;70753;47.908;11.274;2023-12-29T05:22:33;94846.88;;;9.10;44.50
81274;BME280;70753;47.908;11.274;2023-12-29T05:24:59;94840.25;;;9.03;44.25
81274;BME280;70753;47.908;11.274;2023-12-29T05:27:24;94832.25;;;9.08;45.88
81274;BME280;70753;47.908;11.274;2023-12-29T05:29:51;94834.91;;;9.03;45.53
81274;BME280;70753;47.908;11.274;2023-12-29T05:32:16;94833.16;;;8.73;45.31
81274;BME280;70753;47.908;11.274;2023-12-29T05:34:41;94839.53;;;8.62;47.19
81274;BME280;70753;47.908;11.274;2023-12-29T05:37:08;94838.78;;;8.57;46.50
81274;BME280;70753;47.908;11.274;2023-12-29T05:39:33;94846.19;;;8.70;46.49
81274;BME280;70753;47.908;11.274;2023-12-29T05:41:58;94841.94;;;8.69;47.46
81274;BME280;70753;47.908;11.274;2023-12-29T05:44:24;94852.59;;;8.33;49.66
81274;BME280;70753;47.908;11.274;2023-12-29T05:46:51;94860.03;;;8.41;50.03
81274;BME280;70753;47.908;11.274;2023-12-29T05:49:16;94862.41;;;8.58;47.77
81274;BME280;70753;47.908;11.274;2023-12-29T05:51:42;94866.41;;;8.40;51.34
81274;BME280;70753;47.908;11.274;2023-12-29T05:54:08;94864.81;;;8.34;48.25
81274;BME280;70753;47.908;11.274;2023-12-29T05:56:33;94866.91;;;8.63;47.35
81274;BME280;70753;47.908;11.274;2023-12-29T05:58:59;94863.19;;;8.64;47.76
81274;BME280;70753;47.908;11.274;2023-12-29T06:01:24;94877.75;;;8.91;46.32
81274;BME280;70753;47.908;11.274;2023-12-29T06:03:51;94880.13;;;9.08;45.02
81274;BME280;70753;47.908;11.274;2023-12-29T06:06:16;94874.34;;;8.61;46.96
81274;BME280;70753;47.908;11.274;2023-12-29T06:08:42;94861.53;;;8.88;46.76
81274;BME280;70753;47.908;11.274;2023-12-29T06:11:07;94867.38;;;8.90;46.07
81274;BME280;70753;47.908;11.274;2023-12-29T06:13:32;94864.72;;;8.85;46.29
81274;BME280;70753;47.908;11.274;2023-12-29T06:15:58;94870.13;;;8.29;47.33
81274;BME280;70753;47.908;11.274;2023-12-29T06:18:24;94858.13;;;8.77;46.26
81274;BME280;70753;47.908;11.274;2023-12-29T06:20:51;94863.19;;;8.74;47.60
81274;BME280;70753;47.908;11.274;2023-12-29T06:23:16;94868.47;;;8.89;46.87
81274;BME280;70753;47.908;11.274;2023-12-29T06:25:42;94858.94;;;8.58;47.29
81274;BME280;70753;47.908;11.274;2023-12-29T06:28:07;94861.56;;;8.73;49.07
81274;BME280;70753;47.908;11.274;2023-12-29T06:30:32;94871.41;;;8.02;52.62
81274;BME280;70753;47.908;11.274;2023-12-29T06:32:58;94864.78;;;8.19;53.27
81274;BME280;70753;47.908;11.274;2023-12-29T06:35:23;94861.63;;;8.37;53.17
81274;BME280;70753;47.908;11.274;2023-12-29T06:37:50;94859.69;;;8.83;52.46
81274;BME280;70753;47.908;11.274;2023-12-29T06:40:16;94862.31;;;8.93;52.67
81274;BME280;70753;47.908;11.274;2023-12-29T06:42:42;94869.28;;;8.84;53.23
81274;BME280;70753;47.908;11.274;2023-12-29T06:45:07;94856.72;;;9.00;53.75
81274;BME280;70753;47.908;11.274;2023-12-29T06:47:33;94845.50;;;9.23;53.66
81274;BME280;70753;47.908;11.274;2023-12-29T06:49:58;94837.91;;;9.55;53.18
81274;BME280;70753;47.908;11.274;2023-12-29T06:52:23;94840.50;;;9.65;53.23
81274;BME280;70753;47.908;11.274;2023-12-29T06:54:50;94830.56;;;9.76;53.17
81274;BME280;70753;47.908;11.274;2023-12-29T06:57:16;94837.72;;;9.85;53.17
81274;BME280;70753;47.908;11.274;2023-12-29T06:59:41;94841.13;;;9.91;53.04
81274;BME280;70753;47.908;11.274;2023-12-29T07:02:07;94834.94;;;10.00;52.59
81274;BME280;70753;47.908;11.274;2023-12-29T07:04:32;94845.25;;;10.17;52.46
81274;BME280;70753;47.908;11.274;2023-12-29T07:06:59;94857.34;;;9.94;52.91
81274;BME280;70753;47.908;11.274;2023-12-29T07:09:25;94862.03;;;10.07;52.74
81274;BME280;70753;47.908;11.274;2023-12-29T07:11:52;94847.41;;;10.05;52.84
81274;BME280;70753;47.908;11.274;2023-12-29T07:14:17;94853.47;;;10.21;52.30
81274;BME280;70753;47.908;11.274;2023-12-29T07:16:44;94860.41;;;10.17;52.75
81274;BME280;70753;47.908;11.274;2023-12-29T07:19:09;94866.25;;;10.19;52.66
81274;BME280;70753;47.908;11.274;2023-12-29T07:21:34;94861.34;;;10.36;52.12
81274;BME280;70753;47.908;11.274;2023-12-29T07:24:00;94863.50;;;10.29;52.44
81274;BME280;70753;47.908;11.274;2023-12-29T07:26:25;94863.63;;;10.14;52.82
81274;BME280;70753;47.908;11.274;2023-12-29T07:28:52;94864.41;;;10.19;52.76
81274;BME280;70753;47.908;11.274;2023-12-29T07:31:18;94883.34;;;10.18;53.36
81274;BME280;70753;47.908;11.274;2023-12-29T07:33:44;94886.50;;;10.20;53.49
81274;BME280;70753;47.908;11.274;2023-12-29T07:36:09;94869.91;;;10.33;53.10
81274;BME280;70753;47.908;11.274;2023-12-29T07:38:34;94878.56;;;10.15;53.56
81274;BME280;70753;47.908;11.274;2023-12-29T07:41:01;94878.56;;;10.15;54.03
81274;BME280;70753;47.908;11.274;2023-12-29T07:43:26;94885.41;;;10.26;53.96
81274;BME280;70753;47.908;11.274;2023-12-29T07:45:53;94880.25;;;9.95;55.01
81274;BME280;70753;47.908;11.274;2023-12-29T07:48:19;94889.09;;;10.30;54.15
81274;BME280;70753;47.908;11.274;2023-12-29T07:50:44;94882.91;;;10.39;53.91
81274;BME280;70753;47.908;11.274;2023-12-29T07:53:10;94884.28;;;10.32;54.63
81274;BME280;70753;47.908;11.274;2023-12-29T07:55:37;94896.06;;;10.26;54.87
81274;BME280;70753;47.908;11.274;2023-12-29T07:58:03;94897.06;;;10.35;54.90
81274;BME280;70753;47.908;11.274;2023-12-29T08:00:28;94891.03;;;10.53;54.91
81274;BME280;70753;47.908;11.274;2023-12-29T08:02:55;94903.84;;;10.51;54.72
81274;BME280;70753;47.908;11.274;2023-12-29T08:05:20;94897.13;;;10.25;55.50
81274;BME280;70753;47.908;11.274;2023-12-29T08:07:46;94885.31;;;10.36;55.12
81274;BME280;70753;47.908;11.274;2023-12-29T08:10:11;94891.03;;;10.53;54.60
81274;BME280;70753;47.908;11.274;2023-12-29T08:12:37;94883.47;;;10.31;55.26
81274;BME280;70753;47.908;11.274;2023-12-29T08:15:02;94878.66;;;10.33;55.13
81274;BME280;70753;47.908;11.274;2023-12-29T08:17:28;94901.88;;;10.33;55.62
81274;BME280;70753;47.908;11.274;2023-12-29T08:19:55;94893.09;;;10.61;54.84
81274;BME280;70753;47.908;11.274;2023-12-29T08:22:21;94876.81;;;10.34;55.84
81274;BME280;70753;47.908;11.274;2023-12-29T08:25:07;94869.09;;;10.61;54.97
81274;BME280;70753;47.908;11.274;2023-12-29T08:27:38;94883.00;;;10.58;55.04
81274;BME280;70753;47.908;11.274;2023-12-29T08:30:05;94876.25;;;10.37;55.70
81274;BME280;70753;47.908;11.274;2023-12-29T08:32:30;94876.66;;;10.54;54.87
81274;BME280;70753;47.908;11.274;2023-12-29T08:34:57;94874.47;;;10.22;55.70
81274;BME280;70753;47.908;11.274;2023-12-29T08:37:23;94888.28;;;10.34;55.40
81274;BME280;70753;47.908;11.274;2023-12-29T08:39:48;94884.38;;;10.55;54.78
81274;BME280;70753;47.908;11.274;2023-12-29T08:42:14;94889.13;;;10.87;53.62
81274;BME280;70753;47.908;11.274;2023-12-29T08:44:39;94892.97;;;10.76;53.93
81274;BME280;70753;47.908;11.274;2023-12-29T08:47:05;94891.16;;;11.00;53.48
81274;BME280;70753;47.908;11.274;2023-12-29T08:49:30;94888.22;;;10.73;54.22
81274;BME280;70753;47.908;11.274;2023-12-29T08:51:57;94897.75;;;10.79;54.44
81274;BME280;70753;47.908;11.274;2023-12-29T08:54:23;94893.66;;;10.63;55.03
81274;BME280;70753;47.908;11.274;2023-12-29T08:56:48;94895.09;;;10.79;54.92
81274;BME280;70753;47.908;11.274;2023-12-29T08:59:13;94888.06;;;10.88;54.74
81274;BME280;70753;47.908;11.274;2023-12-29T09:01:39;94897.16;;;11.11;54.21
81274;BME280;70753;47.908;11.274;2023-12-29T09:04:05;94895.63;;;11.33;53.87
81274;BME280;70753;47.908;11.274;2023-12-29T09:06:30;94898.53;;;11.32;53.87
81274;BME280;70753;47.908;11.274;2023-12-29T09:08:57;94891.47;;;11.46;53.78
81274;BME280;70753;47.908;11.274;2023-12-29T09:11:23;94888.66;;;11.32;54.40
81274;BME280;70753;47.908;11.274;2023-12-29T09:13:48;94889.81;;;11.26;54.69
81274;BME280;70753;47.908;11.274;2023-12-29T09:16:13;94895.66;;;11.28;55.01
81274;BME280;70753;47.908;11.274;2023-12-29T09:18:39;94887.34;;;11.53;54.37
81274;BME280;70753;47.908;11.274;2023-12-29T09:21:04;94895.47;;;10.96;56.82
81274;BME280;70753;47.908;11.274;2023-12-29T09:23:30;94887.78;;;11.18;56.19
81274;BME280;70753;47.908;11.274;2023-12-29T09:25:57;94896.78;;;11.22;56.51
81274;BME280;70753;47.908;11.274;2023-12-29T09:28:22;94891.84;;;11.34;56.29
81274;BME280;70753;47.908;11.274;2023-12-29T09:30:48;94890.44;;;11.18;57.08
81274;BME280;70753;47.908;11.274;2023-12-29T09:33:13;94890.44;;;11.42;56.31
81274;BME280;70753;47.908;11.274;2023-12-29T09:35:39;94882.09;;;11.48;56.24
81274;BME280;70753;47.908;11.274;2023-12-29T09:38:04;94898.78;;;11.35;56.54
81274;BME280;70753;47.908;11.274;2023-12-29T09:40:30;94900.09;;;11.14;57.31
81274;BME280;70753;47.908;11.274;2023-12-29T09:42:57;94878.31;;;11.49;56.68
81274;BME280;70753;47.908;11.274;2023-12-29T09:45:23;94889.00;;;11.49;56.52
81274;BME280;70753;47.908;11.274;2023-12-29T09:47:51;94896.81;;;11.70;56.48
81274;BME280;70753;47.908;11.274;2023-12-29T09:50:17;94894.50;;;11.58;56.75
81274;BME280;70753;47.908;11.274;2023-12-29T09:52:43;94888.03;;;11.64;56.75
81274;BME280;70753;47.908;11.274;2023-12-29T09:55:10;94887.94;;;11.93;56.41
81274;BME280;70753;47.908;11.274;2023-12-29T09:57:35;94890.09;;;11.48;57.71
81274;BME280;70753;47.908;11.274;2023-12-29T10:00:03;94893.09;;;11.66;57.82
81274;BME280;70753;47.908;11.274;2023-12-29T10:02:29;94886.28;;;11.78;57.28
81274;BME280;70753;47.908;11.274;2023-12-29T10:04:55;94880.91;;;11.60;58.20
81274;BME280;70753;47.908;11.274;2023-12-29T10:07:24;94884.25;;;11.70;57.95
81274;BME280;70753;47.908;11.274;2023-12-29T10:09:52;94873.75;;;11.55;58.29
81274;BME280;70753;47.908;11.274;2023-12-29T10:12:18;94872.44;;;11.52;58.51
81274;BME280;70753;47.908;11.274;2023-12-29T10:14:48;94874.09;;;11.91;57.62
81274;BME280;70753;47.908;11.274;2023-12-29T10:17:23;94864.56;;;11.85;57.73
81274;BME280;70753;47.908;11.274;2023-12-29T10:19:58;94855.97;;;11.88;57.61
81274;BME280;70753;47.908;11.274;2023-12-29T10:22:33;94863.56;;;11.81;57.67
81274;BME280;70753;47.908;11.274;2023-12-29T10:25:03;94854.81;;;12.12;56.57
81274;BME280;70753;47.908;11.274;2023-12-29T10:27:29;94861.63;;;12.37;56.20
81274;BME280;70753;47.908;11.274;2023-12-29T10:29:54;94858.16;;;12.55;55.79
81274;BME280;70753;47.908;11.274;2023-12-29T10:32:22;94849.63;;;12.53;55.79
81274;BME280;70753;47.908;11.274;2023-12-29T10:34:48;94845.66;;;12.51;55.66
81274;BME280;70753;47.908;11.274;2023-12-29T10:37:22;94851.81;;;12.51;55.78
81274;BME280;70753;47.908;11.274;2023-12-29T10:39:55;94854.72;;;12.36;56.05
81274;BME280;70753;47.908;11.274;2023-12-29T10:42:21;94841.19;;;12.46;55.75
81274;BME280;70753;47.908;11.274;2023-12-29T10:44:46;94840.84;;;12.34;56.29
81274;BME280;70753;47.908;11.274;2023-12-29T10:47:12;94832.78;;;12.20;56.90
81274;BME280;70753;47.908;11.274;2023-12-29T10:49:40;94836.44;;;12.24;56.62
81274;BME280;70753;47.908;11.274;2023-12-29T10:52:12;94832.22;;;12.69;55.61
81274;BME280;70753;47.908;11.274;2023-12-29T10:54:37;94822.41;;;13.11;54.33
81274;BME280;70753;47.908;11.274;2023-12-29T10:57:03;94823.31;;;13.20;53.83
81274;BME280;70753;47.908;11.274;2023-12-29T10:59:30;94812.47;;;13.65;52.29
81274;BME280;70753;47.908;11.274;2023-12-29T11:01:56;94810.53;;;13.44;53.13
81274;BME280;70753;47.908;11.274;2023-12-29T11:04:22;94798.75;;;13.80;52.10
81274;BME280;70753;47.908;11.274;2023-12-29T11:06:49;94827.75;;;13.65;51.52
81274;BME280;70753;47.908;11.274;2023-12-29T11:09:27;94794.78;;;13.78;51.46
81274;BME280;70753;47.908;11.274;2023-12-29T11:11:52;94783.38;;;14.08;50.91
81274;BME280;70753;47.908;11.274;2023-12-29T11:14:18;94782.41;;;14.48;49.98
81274;BME280;70753;47.908;11.274;2023-12-29T11:16:44;94773.00;;;14.59;49.56
81274;BME280;70753;47.908;11.274;2023-12-29T11:19:11;94787.06;;;14.34;49.30
81274;BME280;70753;47.908;11.274;2023-12-29T11:21:41;94768.13;;;13.95;50.12
81274;BME280;70753;47.908;11.274;2023-12-29T11:24:12;94777.88;;;13.91;49.97
81274;BME280;70753;47.908;11.274;2023-12-29T11:26:38;94766.63;;;13.67;51.14
81274;BME280;70753;47.908;11.274;2023-12-29T11:29:05;94775.72;;;13.79;50.64
81274;BME280;70753;47.908;11.274;2023-12-29T11:31:31;94760.34;;;13.85;50.86
81274;BME280;70753;47.908;11.274;2023-12-29T11:34:00;94765.09;;;14.10;49.54
81274;BME280;70753;47.908;11.274;2023-12-29T11:36:32;94762.09;;;13.54;50.98
81274;BME280;70753;47.908;11.274;2023-12-29T11:39:02;94757.47;;;12.91;52.52
81274;BME280;70753;47.908;11.274;2023-12-29T11:41:38;94763.06;;;13.58;51.36
81274;BME280;70753;47.908;11.274;2023-12-29T11:44:07;94771.91;;;13.58;50.73
81274;BME280;70753;47.908;11.274;2023-12-29T11:46:33;94763.31;;;13.34;51.64
81274;BME280;70753;47.908;11.274;2023-12-29T11:49:05;94758.19;;;13.60;50.97
81274;BME280;70753;47.908;11.274;2023-12-29T11:51:33;94759.25;;;13.72;50.58
81274;BME280;70753;47.908;11.274;2023-12-29T11:54:00;94759.34;;;14.03;49.94
81274;BME280;70753;47.908;11.274;2023-12-29T11:56:38;94743.97;;;13.73;50.18
81274;BME280;70753;47.908;11.274;2023-12-29T11:59:14;94755.25;;;13.48;51.07
81274;BME280;70753;47.908;11.274;2023-12-29T12:01:41;94735.53;;;13.44;51.38
81274;BME280;70753;47.908;11.274;2023-12-29T12:07:06;94739.75;;;13.23;51.48
81274;BME280;70753;47.908;11.274;2023-12-29T12:09:31;94733.09;;;13.20;52.19
81274;BME280;70753;47.908;11.274;2023-12-29T12:11:59;94733.59;;;13.22;51.83
81274;BME280;70753;47.908;11.274;2023-12-29T12:14:44;94740.50;;;12.82;52.95
81274;BME280;70753;47.908;11.274;2023-12-29T12:17:13;94751.91;;;12.74;53.33
81274;BME280;70753;47.908;11.274;2023-12-29T12:19:52;94720.31;;;12.90;52.77
81274;BME280;70753;47.908;11.274;2023-12-29T12:22:18;94721.03;;;13.45;51.25
81274;BME280;70753;47.908;11.274;2023-12-29T12:24:45;94722.41;;;13.56;50.07
81274;BME280;70753;47.908;11.274;2023-12-29T12:27:12;94728.28;;;13.80;49.48
81274;BME280;70753;47.908;11.274;2023-12-29T12:29:38;94722.19;;;14.10;48.77
81274;BME280;70753;47.908;11.274;2023-12-29T12:32:04;94723.31;;;13.87;48.70
81274;BME280;70753;47.908;11.274;2023-12-29T12:34:36;94729.94;;;13.54;49.29
81274;BME280;70753;47.908;11.274;2023-12-29T12:37:02;94726.38;;;13.58;49.24
81274;BME280;70753;47.908;11.274;2023-12-29T12:39:38;94724.59;;;13.54;49.64
81274;BME280;70753;47.908;11.274;2023-12-29T12:42:03;94726.53;;;13.40;50.00
81274;BME280;70753;47.908;11.274;2023-12-29T12:44:31;94724.81;;;13.44;49.92
81274;BME280;70753;47.908;11.274;2023-12-29T12:46:59;94723.59;;;13.63;49.23
81274;BME280;70753;47.908;11.274;2023-12-29T12:49:25;94740.50;;;13.37;50.11
81274;BME280;70753;47.908;11.274;2023-12-29T12:51:52;94721.84;;;13.32;50.06
81274;BME280;70753;47.908;11.274;2023-12-29T12:54:19;94716.34;;;13.15;50.15